Time;durP1;ratioP1;P1;durP2;ratioP2;P2;SDS_P1;SDS_P2;PMS_P1;PMS_P2;Temp;Humidity;BMP_temperature;BMP_pressure;BME280_temperature;BME280_humidity;BME280_pressure;Samples;Min_cycle;Max_cycle;Signal;HPM_P1;HPM_P2
2023/12/13 00:01:37;;;;;;;;;;;8.80;99.90;;;;;;8429627;28;19925;-70
2023/12/13 00:05:39;;;;;;;;;;;8.80;99.90;;;;;;8441989;28;19924;-70
2023/12/13 00:09:40;;;;;;;;;;;8.80;99.90;;;;;;8432435;28;19924;-70
2023/12/13 00:13:42;;;;;;;;;;;8.70;99.90;;;;;;8451886;28;19974;-70
2023/12/13 00:17:44;;;;;;;;;;;8.70;99.90;;;;;;8423186;28;19971;-70
2023/12/13 00:21:45;;;;;;;;;;;8.70;99.90;;;;;;8425978;28;20026;-70
2023/12/13 00:25:47;;;;;;;;;;;8.70;99.90;;;;;;8479974;27;21728;-70
2023/12/13 00:29:49;;;;;;;;;;;8.80;99.90;;;;;;8426217;28;19962;-70
2023/12/13 00:33:50;;;;;;;;;;;8.80;99.90;;;;;;8422591;28;20394;-70
2023/12/13 00:37:52;;;;;;;;;;;8.80;99.90;;;;;;8439626;28;19993;-70
2023/12/13 00:41:54;;;;;;;;;;;8.80;99.90;;;;;;8435275;28;19923;-70
2023/12/13 00:45:56;;;;;;;;;;;8.80;99.90;;;;;;8407892;28;19930;-70
2023/12/13 00:49:57;;;;;;;;;;;8.80;99.90;;;;;;8423340;28;20282;-70
2023/12/13 00:54:00;;;;;;;;;;;8.80;99.90;;;;;;8435315;28;20278;-70
2023/12/13 00:58:01;;;;;;;;;;;8.80;99.90;;;;;;8425630;28;19982;-70
2023/12/13 01:02:05;;;;;;;;;;;8.80;99.90;;;;;;8423085;28;20356;-70
2023/12/13 01:06:09;;;;;;;;;;;8.80;99.90;;;;;;8417287;28;19936;-70
2023/12/13 01:10:10;;;;;;;;;;;8.80;99.90;;;;;;8427694;28;20338;-70
2023/12/13 01:14:12;;;;;;;;;;;8.80;99.90;;;;;;8425951;28;20010;-70
2023/12/13 01:18:14;;;;;;;;;;;8.80;99.90;;;;;;8429530;28;19924;-69
2023/12/13 01:22:16;;;;;;;;;;;8.80;99.90;;;;;;8406818;28;19981;-70
2023/12/13 01:26:17;;;;;;;;;;;8.80;99.90;;;;;;8435817;28;20029;-70
2023/12/13 01:30:19;;;;;;;;;;;8.80;99.90;;;;;;8435727;28;19927;-70
2023/12/13 01:34:20;;;;;;;;;;;8.80;99.90;;;;;;8426570;28;19924;-70
2023/12/13 01:38:22;;;;;;;;;;;8.80;99.90;;;;;;8438771;28;19928;-70
2023/12/13 01:42:24;;;;;;;;;;;8.80;99.90;;;;;;8416103;28;19932;-70
2023/12/13 01:46:25;;;;;;;;;;;8.80;99.90;;;;;;8432832;28;20299;-70
2023/12/13 01:50:27;;;;;;;;;;;8.80;99.90;;;;;;8414166;28;20470;-70
2023/12/13 01:54:30;;;;;;;;;;;8.80;99.90;;;;;;8434274;28;19928;-70
2023/12/13 01:58:32;;;;;;;;;;;8.70;99.90;;;;;;8461753;27;19939;-70
2023/12/13 02:02:34;;;;;;;;;;;8.70;99.90;;;;;;8432741;28;20360;-70
2023/12/13 02:06:36;;;;;;;;;;;8.70;99.90;;;;;;8425464;28;19935;-70
2023/12/13 02:10:38;;;;;;;;;;;8.70;99.90;;;;;;8429397;28;19924;-70
2023/12/13 02:14:40;;;;;;;;;;;8.60;99.90;;;;;;8430878;28;19931;-70
2023/12/13 02:18:42;;;;;;;;;;;8.60;99.90;;;;;;8415763;28;20008;-70
2023/12/13 02:22:43;;;;;;;;;;;8.60;99.90;;;;;;8423214;28;20804;-70
2023/12/13 02:41:56;;;;;;;;;;;8.60;99.90;;;;;;8429313;28;20325;-71
2023/12/13 02:45:58;;;;;;;;;;;8.60;99.90;;;;;;8439268;28;19924;-70
2023/12/13 02:49:59;;;;;;;;;;;8.60;99.90;;;;;;8437992;28;19924;-70
2023/12/13 02:54:01;;;;;;;;;;;8.60;99.90;;;;;;8419727;28;19971;-70
2023/12/13 02:58:04;;;;;;;;;;;8.60;99.90;;;;;;8414936;28;19963;-70
2023/12/13 03:02:07;;;;;;;;;;;8.70;99.90;;;;;;8419387;28;19924;-70
2023/12/13 03:06:09;;;;;;;;;;;8.60;99.90;;;;;;8422499;28;19959;-70
2023/12/13 03:10:10;;;;;;;;;;;8.60;99.90;;;;;;8408276;28;19931;-70
2023/12/13 03:14:12;;;;;;;;;;;8.60;99.90;;;;;;8433143;28;19967;-70
2023/12/13 03:18:14;;;;;;;;;;;8.60;99.90;;;;;;8413150;28;20020;-70
2023/12/13 03:22:15;;;;;;;;;;;8.60;99.90;;;;;;8422022;28;19964;-70
2023/12/13 03:26:18;;;;;;;;;;;8.60;99.90;;;;;;8413536;28;20337;-70
2023/12/13 03:30:20;;;;;;;;;;;8.60;99.90;;;;;;8432918;28;19935;-70
2023/12/13 03:34:21;;;;;;;;;;;8.60;99.90;;;;;;8431029;28;19931;-70
2023/12/13 03:38:23;;;;;;;;;;;8.70;99.90;;;;;;8436948;28;19931;-70
2023/12/13 03:42:25;;;;;;;;;;;8.60;99.90;;;;;;8435119;28;19931;-70
2023/12/13 03:46:27;;;;;;;;;;;8.60;99.90;;;;;;8444997;28;19931;-70
2023/12/13 03:50:29;;;;;;;;;;;8.70;99.90;;;;;;8442212;28;19924;-70
2023/12/13 03:54:31;;;;;;;;;;;8.70;99.90;;;;;;8424997;28;19981;-70
2023/12/13 03:58:32;;;;;;;;;;;8.70;99.90;;;;;;8416780;28;19936;-70
2023/12/13 04:02:34;;;;;;;;;;;8.70;99.90;;;;;;8459634;27;19924;-70
2023/12/13 04:06:36;;;;;;;;;;;8.80;99.90;;;;;;8425279;28;20317;-70
2023/12/13 04:10:38;;;;;;;;;;;8.70;99.90;;;;;;8431921;28;20361;-70
2023/12/13 04:14:39;;;;;;;;;;;8.80;99.90;;;;;;8435483;28;20011;-70
2023/12/13 04:18:41;;;;;;;;;;;8.80;99.90;;;;;;8434268;28;20398;-70
2023/12/13 04:22:44;;;;;;;;;;;8.80;99.90;;;;;;8427477;28;19924;-70
2023/12/13 04:26:45;;;;;;;;;;;8.80;99.90;;;;;;8414457;28;19928;-70
2023/12/13 04:35:54;;;;;;;;;;;8.80;99.90;;;;;;8430264;28;20019;-70
2023/12/13 04:39:56;;;;;;;;;;;8.80;99.90;;;;;;8431273;28;19924;-70
2023/12/13 04:43:58;;;;;;;;;;;8.70;99.90;;;;;;8427514;28;19925;-70
2023/12/13 04:48:00;;;;;;;;;;;8.70;99.90;;;;;;8417883;28;20652;-70
2023/12/13 04:52:01;;;;;;;;;;;8.70;99.90;;;;;;8425929;28;19928;-70
2023/12/13 04:56:03;;;;;;;;;;;8.70;99.90;;;;;;8439859;28;19976;-70
2023/12/13 05:00:07;;;;;;;;;;;8.60;99.90;;;;;;8428792;28;19949;-70
2023/12/13 05:04:09;;;;;;;;;;;8.60;99.90;;;;;;8419686;28;19978;-70
2023/12/13 05:13:15;;;;;;;;;;;8.50;99.90;;;;;;8415715;28;19927;-70
2023/12/13 05:17:16;;;;;;;;;;;8.50;99.90;;;;;;8427989;28;19932;-70
2023/12/13 05:21:18;;;;;;;;;;;8.60;99.90;;;;;;8455818;27;20282;-69
2023/12/13 05:25:20;;;;;;;;;;;8.60;99.90;;;;;;8421721;28;19928;-70
2023/12/13 05:29:22;;;;;;;;;;;8.60;99.90;;;;;;8430831;28;20458;-70
2023/12/13 05:33:24;;;;;;;;;;;8.70;99.90;;;;;;8431940;28;19932;-70
2023/12/13 05:37:25;;;;;;;;;;;8.70;99.90;;;;;;8424137;28;19931;-70
2023/12/13 05:41:27;;;;;;;;;;;8.70;99.90;;;;;;8419980;28;19939;-70
2023/12/13 05:45:29;;;;;;;;;;;8.70;99.90;;;;;;8437985;28;19935;-70
2023/12/13 05:49:30;;;;;;;;;;;8.70;99.90;;;;;;8462947;27;19928;-70
2023/12/13 05:53:32;;;;;;;;;;;8.70;99.90;;;;;;8424853;28;19923;-70
2023/12/13 06:12:38;;;;;;;;;;;8.80;99.90;;;;;;8449918;28;20396;-70
2023/12/13 06:16:39;;;;;;;;;;;8.80;99.90;;;;;;8434523;28;19928;-70
2023/12/13 06:20:41;;;;;;;;;;;8.80;99.90;;;;;;8431413;28;19934;-70
2023/12/13 06:24:43;;;;;;;;;;;8.80;99.90;;;;;;8434616;28;19928;-70
2023/12/13 06:28:45;;;;;;;;;;;8.80;99.90;;;;;;8445138;28;19928;-70
2023/12/13 06:32:46;;;;;;;;;;;8.80;99.90;;;;;;8442597;28;19928;-70
2023/12/13 06:36:49;;;;;;;;;;;8.80;99.90;;;;;;8430006;28;19971;-70
2023/12/13 06:40:51;;;;;;;;;;;8.80;99.90;;;;;;8440835;28;19925;-70
2023/12/13 06:44:53;;;;;;;;;;;8.80;99.90;;;;;;8432970;28;19935;-70
2023/12/13 06:48:55;;;;;;;;;;;8.80;99.90;;;;;;8435081;28;20379;-70
2023/12/13 06:52:57;;;;;;;;;;;8.90;99.90;;;;;;8447349;28;19932;-70
2023/12/13 06:56:59;;;;;;;;;;;8.90;99.90;;;;;;8438149;28;20081;-70
2023/12/13 07:01:01;;;;;;;;;;;8.90;99.90;;;;;;8446316;28;19969;-70
2023/12/13 07:05:03;;;;;;;;;;;8.90;99.90;;;;;;8443372;28;19949;-70
2023/12/13 07:09:05;;;;;;;;;;;8.90;99.90;;;;;;8437603;28;19971;-70
2023/12/13 07:13:07;;;;;;;;;;;8.90;99.90;;;;;;8434272;28;20459;-70
2023/12/13 07:17:09;;;;;;;;;;;8.90;99.90;;;;;;8437206;28;19924;-70
2023/12/13 07:21:10;;;;;;;;;;;8.90;99.90;;;;;;8430585;28;20337;-70
2023/12/13 07:25:12;;;;;;;;;;;9.00;99.90;;;;;;8445075;28;19924;-70
2023/12/13 07:29:14;;;;;;;;;;;9.00;99.90;;;;;;8437452;28;19931;-70
2023/12/13 07:33:15;;;;;;;;;;;9.00;99.90;;;;;;8437981;28;19924;-70
2023/12/13 07:37:18;;;;;;;;;;;9.00;99.90;;;;;;8420417;28;19936;-70
2023/12/13 07:41:19;;;;;;;;;;;9.00;99.90;;;;;;8415624;28;20287;-70
2023/12/13 07:45:23;;;;;;;;;;;9.00;99.90;;;;;;8437818;27;20564;-70
2023/12/13 07:49:25;;;;;;;;;;;9.00;99.90;;;;;;8416595;28;20315;-70
2023/12/13 07:53:27;;;;;;;;;;;9.00;99.90;;;;;;8417434;28;19931;-70
2023/12/13 07:57:29;;;;;;;;;;;9.00;99.90;;;;;;8403702;28;19928;-70
2023/12/13 08:01:31;;;;;;;;;;;9.10;99.90;;;;;;8422635;28;19997;-70
2023/12/13 08:05:32;;;;;;;;;;;9.10;99.90;;;;;;8416922;28;19924;-70
2023/12/13 08:09:34;;;;;;;;;;;9.10;99.90;;;;;;8414999;28;20503;-70
2023/12/13 08:13:36;;;;;;;;;;;9.10;99.90;;;;;;8404492;28;19929;-70
2023/12/13 08:17:38;;;;;;;;;;;9.10;99.90;;;;;;8411904;28;19924;-70
2023/12/13 08:21:43;;;;;;;;;;;9.10;99.90;;;;;;8413955;28;19924;-70
2023/12/13 08:25:45;;;;;;;;;;;9.10;99.90;;;;;;8449021;28;19928;-70
2023/12/13 08:29:46;;;;;;;;;;;9.20;99.90;;;;;;8443530;28;19924;-70
2023/12/13 08:33:48;;;;;;;;;;;9.20;99.90;;;;;;8417188;28;19960;-70
2023/12/13 08:37:50;;;;;;;;;;;9.20;99.90;;;;;;8436907;28;19924;-70
2023/12/13 08:41:52;;;;;;;;;;;9.20;99.90;;;;;;8432452;28;19924;-70
2023/12/13 08:45:53;;;;;;;;;;;9.20;99.90;;;;;;8441747;28;19923;-70
2023/12/13 08:49:55;;;;;;;;;;;9.20;99.90;;;;;;8441560;28;19923;-70
2023/12/13 08:53:57;;;;;;;;;;;9.20;99.90;;;;;;8452030;28;19948;-70
2023/12/13 09:03:02;;;;;;;;;;;9.30;99.90;;;;;;8423609;28;19949;-70
2023/12/13 09:12:08;;;;;;;;;;;9.30;99.90;;;;;;8425060;28;19922;-70
2023/12/13 09:16:09;;;;;;;;;;;9.30;99.90;;;;;;8435089;28;19925;-70
2023/12/13 09:20:15;;;;;;;;;;;9.30;99.90;;;;;;8444476;28;19924;-70
2023/12/13 09:24:17;;;;;;;;;;;9.30;99.90;;;;;;8437209;28;19959;-70
2023/12/13 09:28:19;;;;;;;;;;;9.30;99.90;;;;;;8467697;27;20312;-70
2023/12/13 09:32:21;;;;;;;;;;;9.30;99.90;;;;;;8434016;28;19925;-70
2023/12/13 09:36:22;;;;;;;;;;;9.30;99.90;;;;;;8432680;28;19932;-70
2023/12/13 09:40:24;;;;;;;;;;;9.30;99.90;;;;;;8445885;28;20358;-70
2023/12/13 09:44:26;;;;;;;;;;;9.30;99.90;;;;;;8430607;28;19931;-70
2023/12/13 09:58:35;;;;;;;;;;;9.40;99.90;;;;;;8426495;28;19923;-71
2023/12/13 10:02:37;;;;;;;;;;;9.50;99.90;;;;;;8426504;28;19975;-70
2023/12/13 10:06:39;;;;;;;;;;;9.60;99.90;;;;;;8424784;28;20550;-70
2023/12/13 10:10:43;;;;;;;;;;;9.60;99.90;;;;;;8433847;28;19928;-70
2023/12/13 10:14:44;;;;;;;;;;;9.70;99.90;;;;;;8443927;28;19931;-70
2023/12/13 10:18:46;;;;;;;;;;;9.80;99.90;;;;;;8445528;28;20295;-70
2023/12/13 10:22:49;;;;;;;;;;;9.80;99.90;;;;;;8448013;28;19924;-71
2023/12/13 10:26:51;;;;;;;;;;;9.90;99.90;;;;;;8475855;27;19924;-70
2023/12/13 10:30:52;;;;;;;;;;;9.90;99.90;;;;;;8450360;28;19931;-70
2023/12/13 10:34:54;;;;;;;;;;;10.00;99.90;;;;;;8444794;28;19930;-71
2023/12/13 10:38:56;;;;;;;;;;;10.00;99.90;;;;;;8436614;28;20019;-70
2023/12/13 10:42:58;;;;;;;;;;;10.00;99.90;;;;;;8433471;28;19928;-70
2023/12/13 10:47:01;;;;;;;;;;;10.00;99.90;;;;;;8435751;27;19932;-70
2023/12/13 10:51:03;;;;;;;;;;;10.00;99.90;;;;;;8441968;28;19924;-71
2023/12/13 11:15:18;;;;;;;;;;;10.00;99.90;;;;;;8446807;28;20345;-70
2023/12/13 11:19:24;;;;;;;;;;;10.00;99.90;;;;;;8448673;28;19931;-70
2023/12/13 11:23:26;;;;;;;;;;;10.00;99.90;;;;;;8431509;28;20271;-70
2023/12/13 11:27:29;;;;;;;;;;;10.00;99.90;;;;;;8437589;28;20311;-70
2023/12/13 11:31:32;;;;;;;;;;;10.10;99.90;;;;;;8453245;28;19927;-70
2023/12/13 11:35:34;;;;;;;;;;;10.20;99.90;;;;;;8435655;28;19977;-70
2023/12/13 11:49:48;;;;;;;;;;;10.70;99.90;;;;;;8386750;28;20058;-70
2023/12/13 11:53:50;;;;;;;;;;;10.90;99.90;;;;;;8417355;28;20436;-70
2023/12/13 11:57:53;;;;;;;;;;;11.10;99.90;;;;;;8425848;28;19928;-70
2023/12/13 12:01:55;;;;;;;;;;;11.20;99.90;;;;;;8424245;28;19925;-70
2023/12/13 12:05:57;;;;;;;;;;;11.30;99.90;;;;;;8424668;28;19930;-70
2023/12/13 12:09:59;;;;;;;;;;;11.40;99.90;;;;;;8441376;28;20323;-70
2023/12/13 12:14:01;;;;;;;;;;;11.40;99.90;;;;;;8436962;28;19949;-70
2023/12/13 12:18:03;;;;;;;;;;;11.30;99.90;;;;;;8445036;28;19924;-70
2023/12/13 12:22:05;;;;;;;;;;;11.30;99.90;;;;;;8453254;28;19927;-70
2023/12/13 12:26:11;;;;;;;;;;;11.20;99.90;;;;;;8429584;28;20475;-70
2023/12/13 12:30:13;;;;;;;;;;;11.20;99.90;;;;;;8422159;28;19924;-70
2023/12/13 12:34:15;;;;;;;;;;;11.20;99.90;;;;;;8410641;28;19932;-70
2023/12/13 12:38:16;;;;;;;;;;;11.20;99.90;;;;;;8401656;28;19939;-70
2023/12/13 12:42:19;;;;;;;;;;;11.30;99.90;;;;;;8435160;27;19925;-70
2023/12/13 12:46:21;;;;;;;;;;;11.30;99.90;;;;;;8406023;28;19931;-70
2023/12/13 12:50:23;;;;;;;;;;;11.30;99.90;;;;;;8432533;27;19928;-70
2023/12/13 12:54:25;;;;;;;;;;;11.30;99.90;;;;;;8407374;28;20284;-70
2023/12/13 12:58:27;;;;;;;;;;;11.30;99.90;;;;;;8401906;28;20029;-70
2023/12/13 13:02:29;;;;;;;;;;;11.30;99.90;;;;;;8404843;28;19928;-71
2023/12/13 13:06:32;;;;;;;;;;;11.30;99.90;;;;;;8418686;28;19936;-70
2023/12/13 13:10:34;;;;;;;;;;;11.20;99.90;;;;;;8409174;28;20387;-70
2023/12/13 13:14:36;;;;;;;;;;;11.20;99.90;;;;;;8403901;28;19930;-70
2023/12/13 13:18:37;;;;;;;;;;;11.20;99.90;;;;;;8396664;28;19925;-70
2023/12/13 13:22:40;;;;;;;;;;;11.20;99.90;;;;;;8402682;28;19928;-71
2023/12/13 13:26:42;;;;;;;;;;;11.20;99.90;;;;;;8430315;27;20011;-70
2023/12/13 13:30:43;;;;;;;;;;;11.20;99.90;;;;;;8424141;28;19971;-70
2023/12/13 13:34:45;;;;;;;;;;;11.20;99.90;;;;;;8403022;28;19924;-70
2023/12/13 13:38:47;;;;;;;;;;;11.20;99.90;;;;;;8402735;28;19930;-70
2023/12/13 13:42:49;;;;;;;;;;;11.20;99.90;;;;;;8408250;28;19950;-70
2023/12/13 13:46:51;;;;;;;;;;;11.20;99.90;;;;;;8400131;28;19965;-70
2023/12/13 13:56:03;;;;;;;;;;;11.20;99.90;;;;;;8438912;28;19924;-70
2023/12/13 14:00:10;;;;;;;;;;;11.20;99.90;;;;;;8448797;28;19930;-70
2023/12/13 14:04:11;;;;;;;;;;;11.20;99.90;;;;;;8440952;28;20376;-71
2023/12/13 14:08:14;;;;;;;;;;;11.20;99.90;;;;;;8440366;28;19969;-70
2023/12/13 14:12:16;;;;;;;;;;;11.20;99.90;;;;;;8440694;28;19927;-70
2023/12/13 14:16:18;;;;;;;;;;;11.20;99.90;;;;;;8433711;28;19928;-70
2023/12/13 14:20:19;;;;;;;;;;;11.20;99.90;;;;;;8425796;28;20011;-70
2023/12/13 14:34:27;;;;;;;;;;;11.20;99.90;;;;;;8443281;28;20275;-70
2023/12/13 14:38:31;;;;;;;;;;;11.20;99.90;;;;;;8430133;28;19923;-71
2023/12/13 14:42:33;;;;;;;;;;;11.10;99.90;;;;;;8439477;28;19939;-71
2023/12/13 14:46:36;;;;;;;;;;;11.10;99.90;;;;;;8444846;28;19932;-71
2023/12/13 14:50:39;;;;;;;;;;;11.10;99.90;;;;;;8432857;28;19932;-71
2023/12/13 14:54:40;;;;;;;;;;;11.00;99.90;;;;;;8447349;28;19931;-71
2023/12/13 14:58:42;;;;;;;;;;;10.90;99.90;;;;;;8439152;28;20182;-71
2023/12/13 15:02:44;;;;;;;;;;;10.80;99.90;;;;;;8461693;27;19978;-71
2023/12/13 15:06:46;;;;;;;;;;;10.80;99.90;;;;;;8442013;28;19927;-71
2023/12/13 15:10:47;;;;;;;;;;;10.70;99.90;;;;;;8434908;28;19935;-71
2023/12/13 15:14:49;;;;;;;;;;;10.70;99.90;;;;;;8439197;28;19924;-71
2023/12/13 15:18:51;;;;;;;;;;;10.60;99.90;;;;;;8437931;28;20268;-70
2023/12/13 15:22:52;;;;;;;;;;;10.60;99.90;;;;;;8436198;28;19985;-70
2023/12/13 15:26:54;;;;;;;;;;;10.50;99.90;;;;;;8418045;28;20327;-70
2023/12/13 15:30:56;;;;;;;;;;;10.50;99.90;;;;;;8432049;28;19924;-70
2023/12/13 15:34:58;;;;;;;;;;;10.50;99.90;;;;;;8425601;28;20337;-70
2023/12/13 15:39:03;;;;;;;;;;;10.40;99.90;;;;;;8446712;28;19930;-71
2023/12/13 15:43:05;;;;;;;;;;;10.40;99.90;;;;;;8445114;28;19924;-70
2023/12/13 15:47:07;;;;;;;;;;;10.30;99.90;;;;;;8431664;28;19925;-70
2023/12/13 15:51:09;;;;;;;;;;;10.30;99.90;;;;;;8425837;28;19923;-70
2023/12/13 15:55:11;;;;;;;;;;;10.30;99.90;;;;;;8407181;28;19975;-70
2023/12/13 15:59:13;;;;;;;;;;;10.30;99.90;;;;;;8397193;28;19924;-71
2023/12/13 16:03:15;;;;;;;;;;;10.20;99.90;;;;;;8416399;28;19927;-70
2023/12/13 16:07:17;;;;;;;;;;;10.20;99.90;;;;;;8404591;28;19925;-71
2023/12/13 16:11:19;;;;;;;;;;;10.20;99.90;;;;;;8417460;28;19932;-70
2023/12/13 16:15:23;;;;;;;;;;;10.20;99.90;;;;;;8411102;28;19924;-70
2023/12/13 16:19:25;;;;;;;;;;;10.10;99.90;;;;;;8409941;28;19924;-70
2023/12/13 16:23:27;;;;;;;;;;;10.10;99.90;;;;;;8423933;28;19927;-70
2023/12/13 16:27:28;;;;;;;;;;;10.10;99.90;;;;;;8409211;28;20701;-70
2023/12/13 16:31:30;;;;;;;;;;;10.10;99.90;;;;;;8400473;28;19985;-70
2023/12/13 16:35:32;;;;;;;;;;;10.10;99.90;;;;;;8426830;28;19960;-70
2023/12/13 16:39:33;;;;;;;;;;;10.10;99.90;;;;;;8425175;28;19927;-70
2023/12/13 16:43:35;;;;;;;;;;;10.10;99.90;;;;;;8455863;27;19928;-70
2023/12/13 16:48:02;;;;;;;;;;;10.10;99.90;;;;;;8421000;28;20191;-71
2023/12/13 17:07:28;;;;;;;;;;;10.00;99.90;;;;;;8391590;28;19915;-70
2023/12/13 17:11:30;;;;;;;;;;;9.90;99.90;;;;;;8380965;28;19929;-71
2023/12/13 17:30:43;;;;;;;;;;;9.90;99.90;;;;;;8372549;28;20383;-70
2023/12/13 17:34:45;;;;;;;;;;;9.90;99.90;;;;;;8367177;28;19971;-70
2023/12/13 17:38:46;;;;;;;;;;;9.90;99.90;;;;;;8370805;28;20375;-71
2023/12/13 17:42:48;;;;;;;;;;;9.80;99.90;;;;;;8373043;28;19924;-70
2023/12/13 17:46:50;;;;;;;;;;;9.80;99.90;;;;;;8384430;28;19950;-70
2023/12/13 17:50:52;;;;;;;;;;;9.80;99.90;;;;;;8423694;28;19950;-70
2023/12/13 17:54:53;;;;;;;;;;;9.80;99.90;;;;;;8429234;28;21555;-70
2023/12/13 17:58:55;;;;;;;;;;;9.80;99.90;;;;;;8440936;28;19932;-70
2023/12/13 18:02:57;;;;;;;;;;;9.80;99.90;;;;;;8440480;28;19959;-70
2023/12/13 18:06:59;;;;;;;;;;;9.80;99.90;;;;;;8437234;28;19925;-70
2023/12/13 18:11:02;;;;;;;;;;;9.80;99.90;;;;;;8438061;28;19924;-70
2023/12/13 18:15:04;;;;;;;;;;;9.80;99.90;;;;;;8432150;28;20023;-70
2023/12/13 18:19:06;;;;;;;;;;;9.80;99.90;;;;;;8435364;28;20379;-70
2023/12/13 18:23:08;;;;;;;;;;;9.80;99.90;;;;;;8469951;27;20132;-70
2023/12/13 18:27:09;;;;;;;;;;;9.80;99.90;;;;;;8437540;28;19990;-70
2023/12/13 18:31:11;;;;;;;;;;;9.80;99.90;;;;;;8431838;28;19924;-70
2023/12/13 18:35:13;;;;;;;;;;;9.80;99.90;;;;;;8429271;28;19993;-70
2023/12/13 18:54:39;;;;;;;;;;;9.70;99.90;;;;;;8430157;28;19942;-71
2023/12/13 18:58:40;;;;;;;;;;;9.70;99.90;;;;;;8445952;28;20009;-70
2023/12/13 19:02:42;;;;;;;;;;;9.70;99.90;;;;;;8438587;28;19924;-71
2023/12/13 19:06:44;;;;;;;;;;;9.70;99.90;;;;;;8446528;28;19924;-71
2023/12/13 19:10:45;;;;;;;;;;;9.70;99.90;;;;;;8445223;28;20402;-70
2023/12/13 19:14:48;;;;;;;;;;;9.70;99.90;;;;;;8438894;28;19949;-70
2023/12/13 19:18:50;;;;;;;;;;;9.70;99.90;;;;;;8436044;28;19969;-70
2023/12/13 19:22:51;;;;;;;;;;;9.70;99.90;;;;;;8438127;28;20286;-70
2023/12/13 19:26:53;;;;;;;;;;;9.70;99.90;;;;;;8439689;28;19977;-70
2023/12/13 19:30:55;;;;;;;;;;;9.70;99.90;;;;;;8441854;28;19923;-71
2023/12/13 19:34:57;;;;;;;;;;;9.70;99.90;;;;;;8434424;28;19973;-70
2023/12/13 19:38:59;;;;;;;;;;;9.70;99.90;;;;;;8432156;28;19931;-70
2023/12/13 19:43:01;;;;;;;;;;;9.70;99.90;;;;;;8419570;28;20287;-71
2023/12/13 19:47:05;;;;;;;;;;;9.70;99.90;;;;;;8428950;28;19975;-71
2023/12/13 19:51:07;;;;;;;;;;;9.70;99.90;;;;;;8419069;28;19928;-70
2023/12/13 19:55:13;;;;;;;;;;;9.70;99.90;;;;;;8432208;28;19942;-70
2023/12/13 19:59:15;;;;;;;;;;;9.70;99.90;;;;;;8448027;27;19982;-70
2023/12/13 20:03:16;;;;;;;;;;;9.70;99.90;;;;;;8427287;28;20375;-70
2023/12/13 20:12:22;;;;;;;;;;;9.60;99.90;;;;;;8438509;28;20396;-70
2023/12/13 20:16:23;;;;;;;;;;;9.60;99.90;;;;;;8445905;28;19924;-70
2023/12/13 20:20:26;;;;;;;;;;;9.60;99.90;;;;;;8445203;28;20044;-70
2023/12/13 20:24:28;;;;;;;;;;;9.60;99.90;;;;;;8444141;28;19927;-70
2023/12/13 20:28:32;;;;;;;;;;;9.60;99.90;;;;;;8443093;28;19975;-70
2023/12/13 20:32:34;;;;;;;;;;;9.60;99.90;;;;;;8428469;28;19925;-71
2023/12/13 20:36:38;;;;;;;;;;;9.50;99.90;;;;;;8438524;28;19923;-71
2023/12/13 20:40:41;;;;;;;;;;;9.50;99.90;;;;;;8436764;28;19924;-71
2023/12/13 20:44:43;;;;;;;;;;;9.50;99.90;;;;;;8438543;28;20344;-71
2023/12/13 20:48:44;;;;;;;;;;;9.40;99.90;;;;;;8433064;28;20384;-71
2023/12/13 20:52:46;;;;;;;;;;;9.40;99.90;;;;;;8434076;28;20272;-70
2023/12/13 20:56:48;;;;;;;;;;;9.30;99.90;;;;;;8434906;28;20359;-70
2023/12/13 21:00:49;;;;;;;;;;;9.30;99.90;;;;;;8444951;28;19935;-71
2023/12/13 21:04:51;;;;;;;;;;;9.30;99.90;;;;;;8438131;28;20260;-70
2023/12/13 21:08:53;;;;;;;;;;;9.20;99.90;;;;;;8467460;27;20008;-70
2023/12/13 21:12:55;;;;;;;;;;;9.10;99.90;;;;;;8435833;28;20170;-71
2023/12/13 21:16:57;;;;;;;;;;;9.00;99.90;;;;;;8431810;28;20428;-71
2023/12/13 21:20:58;;;;;;;;;;;9.00;99.90;;;;;;8438135;28;20011;-71
2023/12/13 21:25:00;;;;;;;;;;;8.90;99.90;;;;;;8471000;27;19924;-71
2023/12/13 21:29:02;;;;;;;;;;;8.90;99.90;;;;;;8426966;28;19995;-70
2023/12/13 21:33:03;;;;;;;;;;;8.80;99.90;;;;;;8446363;28;20014;-70
2023/12/13 21:37:05;;;;;;;;;;;8.80;99.90;;;;;;8424983;28;19932;-70
2023/12/13 21:41:15;;;;;;;;;;;8.80;99.90;;;;;;8447367;28;20349;-71
2023/12/13 21:45:17;;;;;;;;;;;8.70;99.90;;;;;;8441638;28;20296;-70
2023/12/13 21:49:19;;;;;;;;;;;8.70;99.90;;;;;;8437823;28;19927;-70
2023/12/13 21:53:21;;;;;;;;;;;8.60;99.90;;;;;;8431228;28;20412;-70
2023/12/13 21:57:23;;;;;;;;;;;8.50;99.90;;;;;;8423163;28;20411;-70
2023/12/13 22:01:24;;;;;;;;;;;8.40;99.90;;;;;;8422978;28;19928;-70
2023/12/13 22:05:26;;;;;;;;;;;8.40;99.90;;;;;;8440812;28;19923;-71
2023/12/13 22:09:27;;;;;;;;;;;8.30;99.90;;;;;;8423003;28;19935;-70
2023/12/13 22:13:31;;;;;;;;;;;8.20;99.90;;;;;;8452249;28;19935;-70
2023/12/13 22:17:36;;;;;;;;;;;8.20;99.90;;;;;;8440886;28;20291;-70
2023/12/13 22:21:45;;;;;;;;;;;8.20;99.90;;;;;;8433898;28;20328;-70
2023/12/13 22:25:50;;;;;;;;;;;8.10;99.90;;;;;;8437761;28;19924;-70
2023/12/13 22:29:51;;;;;;;;;;;8.10;99.90;;;;;;8431189;28;20337;-70
2023/12/13 22:33:54;;;;;;;;;;;8.10;99.90;;;;;;8443739;28;19956;-70
2023/12/13 22:37:57;;;;;;;;;;;8.10;99.90;;;;;;8442289;28;19928;-70
2023/12/13 22:41:59;;;;;;;;;;;8.10;99.90;;;;;;8421772;28;19924;-71
2023/12/13 22:46:01;;;;;;;;;;;8.00;99.90;;;;;;8439372;28;19928;-71
2023/12/13 22:50:03;;;;;;;;;;;7.90;99.90;;;;;;8448589;28;20363;-71
2023/12/13 22:54:05;;;;;;;;;;;7.90;99.90;;;;;;8441953;28;19939;-71
2023/12/13 22:58:07;;;;;;;;;;;7.80;99.90;;;;;;8446243;28;19928;-71
2023/12/13 23:02:08;;;;;;;;;;;7.80;99.90;;;;;;8434191;28;19923;-71
2023/12/13 23:06:10;;;;;;;;;;;7.80;99.90;;;;;;8440241;28;20378;-70
2023/12/13 23:10:13;;;;;;;;;;;7.80;99.90;;;;;;8434873;28;19938;-70
2023/12/13 23:14:14;;;;;;;;;;;7.70;99.90;;;;;;8440885;28;19948;-70
2023/12/13 23:18:16;;;;;;;;;;;7.70;99.90;;;;;;8443166;28;19924;-70
2023/12/13 23:22:18;;;;;;;;;;;7.70;99.90;;;;;;8434456;28;19928;-71
2023/12/13 23:26:20;;;;;;;;;;;7.60;99.90;;;;;;8443074;28;19932;-71
2023/12/13 23:30:21;;;;;;;;;;;7.50;99.90;;;;;;8447135;28;19932;-71
2023/12/13 23:34:23;;;;;;;;;;;7.50;99.90;;;;;;8435422;28;19924;-70
2023/12/13 23:38:25;;;;;;;;;;;7.40;99.90;;;;;;8443920;28;20021;-70
2023/12/13 23:42:26;;;;;;;;;;;7.40;99.90;;;;;;8448498;28;19974;-71
2023/12/13 23:46:28;;;;;;;;;;;7.40;99.90;;;;;;8430224;28;19977;-71
2023/12/13 23:50:29;;;;;;;;;;;7.40;99.90;;;;;;8438618;28;20375;-71
2023/12/13 23:54:33;;;;;;;;;;;7.30;99.90;;;;;;8430607;28;20379;-71
2023/12/13 23:58:35;;;;;;;;;;;7.30;99.90;;;;;;8446854;28;20307;-70
